sensor_id;sensor_type;location;lat;lon;timestamp;temperature;humidity
5276;DHT22;2661;50.786;12.728;2024-01-15T00:01:48;0.60;1.00
5276;DHT22;2661;50.786;12.728;2024-01-15T00:04:15;0.60;1.00
5276;DHT22;2661;50.786;12.728;2024-01-15T00:06:42;0.60;1.00
5276;DHT22;2661;50.786;12.728;2024-01-15T00:09:08;0.60;1.00
5276;DHT22;2661;50.786;12.728;2024-01-15T00:11:36;0.70;1.00
5276;DHT22;2661;50.786;12.728;2024-01-15T00:14:02;0.70;1.00
5276;DHT22;2661;50.786;12.728;2024-01-15T00:16:29;0.60;1.00
5276;DHT22;2661;50.786;12.728;2024-01-15T00:18:56;0.60;1.00
5276;DHT22;2661;50.786;12.728;2024-01-15T00:21:23;0.60;1.00
5276;DHT22;2661;50.786;12.728;2024-01-15T00:23:50;0.60;1.00
5276;DHT22;2661;50.786;12.728;2024-01-15T00:26:16;0.60;1.00
5276;DHT22;2661;50.786;12.728;2024-01-15T00:28:43;0.60;1.00
5276;DHT22;2661;50.786;12.728;2024-01-15T00:31:09;0.60;1.00
5276;DHT22;2661;50.786;12.728;2024-01-15T00:33:36;0.60;1.00
5276;DHT22;2661;50.786;12.728;2024-01-15T00:36:03;0.60;1.00
5276;DHT22;2661;50.786;12.728;2024-01-15T00:38:30;0.60;1.00
5276;DHT22;2661;50.786;12.728;2024-01-15T00:40:57;0.60;1.00
5276;DHT22;2661;50.786;12.728;2024-01-15T00:43:24;0.60;1.00
5276;DHT22;2661;50.786;12.728;2024-01-15T00:45:50;0.70;1.00
5276;DHT22;2661;50.786;12.728;2024-01-15T00:48:17;0.60;1.00
5276;DHT22;2661;50.786;12.728;2024-01-15T00:50:44;0.60;1.00
5276;DHT22;2661;50.786;12.728;2024-01-15T00:53:10;0.50;1.00
5276;DHT22;2661;50.786;12.728;2024-01-15T00:55:37;0.50;1.00
5276;DHT22;2661;50.786;12.728;2024-01-15T00:58:04;0.50;1.00
5276;DHT22;2661;50.786;12.728;2024-01-15T01:00:30;0.50;1.00
5276;DHT22;2661;50.786;12.728;2024-01-15T01:02:57;0.40;1.00
5276;DHT22;2661;50.786;12.728;2024-01-15T01:05:24;0.40;1.00
5276;DHT22;2661;50.786;12.728;2024-01-15T01:07:50;0.40;1.00
5276;DHT22;2661;50.786;12.728;2024-01-15T01:10:17;0.40;1.00
5276;DHT22;2661;50.786;12.728;2024-01-15T01:12:44;0.40;1.00
5276;DHT22;2661;50.786;12.728;2024-01-15T01:15:11;0.40;1.00
5276;DHT22;2661;50.786;12.728;2024-01-15T01:17:38;0.40;1.00
5276;DHT22;2661;50.786;12.728;2024-01-15T01:20:05;0.40;1.00
5276;DHT22;2661;50.786;12.728;2024-01-15T01:22:35;0.30;1.00
5276;DHT22;2661;50.786;12.728;2024-01-15T01:25:02;0.30;1.00
5276;DHT22;2661;50.786;12.728;2024-01-15T01:27:28;0.30;1.00
5276;DHT22;2661;50.786;12.728;2024-01-15T01:29:55;0.30;1.00
5276;DHT22;2661;50.786;12.728;2024-01-15T01:32:22;0.40;1.00
5276;DHT22;2661;50.786;12.728;2024-01-15T01:34:48;0.40;1.00
5276;DHT22;2661;50.786;12.728;2024-01-15T01:37:15;0.40;1.00
5276;DHT22;2661;50.786;12.728;2024-01-15T01:39:42;0.40;1.00
5276;DHT22;2661;50.786;12.728;2024-01-15T01:42:09;0.40;1.00
5276;DHT22;2661;50.786;12.728;2024-01-15T01:44:36;0.40;1.00
5276;DHT22;2661;50.786;12.728;2024-01-15T01:47:03;0.40;1.00
5276;DHT22;2661;50.786;12.728;2024-01-15T01:49:30;0.40;1.00
5276;DHT22;2661;50.786;12.728;2024-01-15T01:51:57;0.30;1.00
5276;DHT22;2661;50.786;12.728;2024-01-15T01:54:25;0.40;1.00
5276;DHT22;2661;50.786;12.728;2024-01-15T01:56:52;0.30;1.00
5276;DHT22;2661;50.786;12.728;2024-01-15T01:59:19;0.30;1.00
5276;DHT22;2661;50.786;12.728;2024-01-15T02:01:46;0.30;1.00
5276;DHT22;2661;50.786;12.728;2024-01-15T02:04:12;0.30;1.00
5276;DHT22;2661;50.786;12.728;2024-01-15T02:06:41;0.30;1.00
5276;DHT22;2661;50.786;12.728;2024-01-15T02:09:07;0.30;1.00
5276;DHT22;2661;50.786;12.728;2024-01-15T02:11:34;0.30;1.00
5276;DHT22;2661;50.786;12.728;2024-01-15T02:14:01;0.20;1.00
5276;DHT22;2661;50.786;12.728;2024-01-15T02:16:28;0.20;1.00
5276;DHT22;2661;50.786;12.728;2024-01-15T02:18:54;0.20;1.00
5276;DHT22;2661;50.786;12.728;2024-01-15T02:21:21;0.10;1.00
5276;DHT22;2661;50.786;12.728;2024-01-15T02:23:48;0.10;1.00
5276;DHT22;2661;50.786;12.728;2024-01-15T02:26:14;0.10;1.00
5276;DHT22;2661;50.786;12.728;2024-01-15T02:28:41;0.10;1.00
5276;DHT22;2661;50.786;12.728;2024-01-15T02:31:08;0.10;1.00
5276;DHT22;2661;50.786;12.728;2024-01-15T02:33:35;0.10;1.00
5276;DHT22;2661;50.786;12.728;2024-01-15T02:36:01;0.00;1.00
5276;DHT22;2661;50.786;12.728;2024-01-15T02:38:28;0.00;1.00
5276;DHT22;2661;50.786;12.728;2024-01-15T02:40:55;0.00;1.00
5276;DHT22;2661;50.786;12.728;2024-01-15T02:43:22;0.00;1.00
5276;DHT22;2661;50.786;12.728;2024-01-15T02:45:48;0.00;1.00
5276;DHT22;2661;50.786;12.728;2024-01-15T02:48:15;0.00;1.00
5276;DHT22;2661;50.786;12.728;2024-01-15T02:50:42;-0.10;1.00
5276;DHT22;2661;50.786;12.728;2024-01-15T02:53:08;0.00;1.00
5276;DHT22;2661;50.786;12.728;2024-01-15T02:55:35;-0.10;1.00
5276;DHT22;2661;50.786;12.728;2024-01-15T02:58:02;-0.10;1.00
5276;DHT22;2661;50.786;12.728;2024-01-15T03:00:29;-0.20;1.00
5276;DHT22;2661;50.786;12.728;2024-01-15T03:02:56;-0.20;1.00
5276;DHT22;2661;50.786;12.728;2024-01-15T03:05:22;-0.20;1.00
5276;DHT22;2661;50.786;12.728;2024-01-15T03:07:49;-0.20;1.00
5276;DHT22;2661;50.786;12.728;2024-01-15T03:10:16;-0.20;1.00
5276;DHT22;2661;50.786;12.728;2024-01-15T03:12:42;-0.30;1.00
5276;DHT22;2661;50.786;12.728;2024-01-15T03:15:09;-0.30;1.00
5276;DHT22;2661;50.786;12.728;2024-01-15T03:17:36;-0.40;1.00
5276;DHT22;2661;50.786;12.728;2024-01-15T03:20:03;-0.50;1.00
5276;DHT22;2661;50.786;12.728;2024-01-15T03:22:30;-0.50;1.00
5276;DHT22;2661;50.786;12.728;2024-01-15T03:24:57;-0.60;1.00
5276;DHT22;2661;50.786;12.728;2024-01-15T03:27:24;-0.60;1.00
5276;DHT22;2661;50.786;12.728;2024-01-15T03:29:50;-0.50;1.00
5276;DHT22;2661;50.786;12.728;2024-01-15T03:32:17;-0.50;1.00
5276;DHT22;2661;50.786;12.728;2024-01-15T03:34:44;-0.50;1.00
5276;DHT22;2661;50.786;12.728;2024-01-15T03:37:10;-0.40;1.00
5276;DHT22;2661;50.786;12.728;2024-01-15T03:39:37;-0.40;1.00
5276;DHT22;2661;50.786;12.728;2024-01-15T03:42:04;-0.50;1.00
5276;DHT22;2661;50.786;12.728;2024-01-15T03:44:31;-0.50;1.00
5276;DHT22;2661;50.786;12.728;2024-01-15T03:46:57;-0.50;1.00
5276;DHT22;2661;50.786;12.728;2024-01-15T03:49:24;-0.50;1.00
5276;DHT22;2661;50.786;12.728;2024-01-15T03:51:51;-0.50;1.00
5276;DHT22;2661;50.786;12.728;2024-01-15T03:54:18;-0.50;1.00
5276;DHT22;2661;50.786;12.728;2024-01-15T03:56:46;-0.50;1.00
5276;DHT22;2661;50.786;12.728;2024-01-15T03:59:13;-0.50;1.00
5276;DHT22;2661;50.786;12.728;2024-01-15T04:01:39;-0.50;1.00
5276;DHT22;2661;50.786;12.728;2024-01-15T04:04:06;-0.40;1.00
5276;DHT22;2661;50.786;12.728;2024-01-15T04:06:33;-0.40;1.00
5276;DHT22;2661;50.786;12.728;2024-01-15T04:08:59;-0.40;1.00
5276;DHT22;2661;50.786;12.728;2024-01-15T04:11:27;-0.40;1.00
5276;DHT22;2661;50.786;12.728;2024-01-15T04:13:53;-0.40;1.00
5276;DHT22;2661;50.786;12.728;2024-01-15T04:16:20;-0.50;1.00
5276;DHT22;2661;50.786;12.728;2024-01-15T04:18:46;-0.50;1.00
5276;DHT22;2661;50.786;12.728;2024-01-15T04:21:13;-0.50;1.00
5276;DHT22;2661;50.786;12.728;2024-01-15T04:23:40;-0.50;1.00
5276;DHT22;2661;50.786;12.728;2024-01-15T04:26:06;-0.60;1.00
5276;DHT22;2661;50.786;12.728;2024-01-15T04:28:33;-0.60;1.00
5276;DHT22;2661;50.786;12.728;2024-01-15T04:31:00;-0.60;1.00
5276;DHT22;2661;50.786;12.728;2024-01-15T04:33:26;-0.70;1.00
5276;DHT22;2661;50.786;12.728;2024-01-15T04:35:53;-0.70;1.00
5276;DHT22;2661;50.786;12.728;2024-01-15T04:38:20;-0.70;1.00
5276;DHT22;2661;50.786;12.728;2024-01-15T04:40:46;-0.60;1.00
5276;DHT22;2661;50.786;12.728;2024-01-15T04:43:13;-0.60;1.00
5276;DHT22;2661;50.786;12.728;2024-01-15T04:45:39;-0.50;1.00
5276;DHT22;2661;50.786;12.728;2024-01-15T04:48:06;-0.50;1.00
5276;DHT22;2661;50.786;12.728;2024-01-15T04:50:33;-0.50;1.00
5276;DHT22;2661;50.786;12.728;2024-01-15T04:52:59;-0.40;1.00
5276;DHT22;2661;50.786;12.728;2024-01-15T04:55:26;-0.40;1.00
5276;DHT22;2661;50.786;12.728;2024-01-15T04:57:52;-0.40;1.00
5276;DHT22;2661;50.786;12.728;2024-01-15T05:00:19;-0.50;1.00
5276;DHT22;2661;50.786;12.728;2024-01-15T05:02:46;-0.50;1.00
5276;DHT22;2661;50.786;12.728;2024-01-15T05:05:13;-0.50;1.00
5276;DHT22;2661;50.786;12.728;2024-01-15T05:07:40;-0.50;1.00
5276;DHT22;2661;50.786;12.728;2024-01-15T05:10:06;-0.50;1.00
5276;DHT22;2661;50.786;12.728;2024-01-15T05:12:34;-0.40;1.00
5276;DHT22;2661;50.786;12.728;2024-01-15T05:15:01;-0.40;1.00
5276;DHT22;2661;50.786;12.728;2024-01-15T05:17:27;-0.40;1.00
5276;DHT22;2661;50.786;12.728;2024-01-15T05:19:54;-0.50;1.00
5276;DHT22;2661;50.786;12.728;2024-01-15T05:22:21;-0.50;1.00
5276;DHT22;2661;50.786;12.728;2024-01-15T05:24:47;-0.50;1.00
5276;DHT22;2661;50.786;12.728;2024-01-15T05:27:14;-0.40;1.00
5276;DHT22;2661;50.786;12.728;2024-01-15T05:29:41;-0.40;1.00
5276;DHT22;2661;50.786;12.728;2024-01-15T05:32:08;-0.40;1.00
5276;DHT22;2661;50.786;12.728;2024-01-15T05:34:34;-0.50;1.00
5276;DHT22;2661;50.786;12.728;2024-01-15T05:37:01;-0.50;1.00
5276;DHT22;2661;50.786;12.728;2024-01-15T05:39:28;-0.50;1.00
5276;DHT22;2661;50.786;12.728;2024-01-15T05:41:54;-0.50;1.00
5276;DHT22;2661;50.786;12.728;2024-01-15T05:44:21;-0.40;1.00
5276;DHT22;2661;50.786;12.728;2024-01-15T05:46:48;-0.40;1.00
5276;DHT22;2661;50.786;12.728;2024-01-15T05:49:14;-0.50;1.00
5276;DHT22;2661;50.786;12.728;2024-01-15T05:51:41;-0.40;1.00
5276;DHT22;2661;50.786;12.728;2024-01-15T05:54:08;-0.40;1.00
5276;DHT22;2661;50.786;12.728;2024-01-15T05:56:34;-0.40;1.00
5276;DHT22;2661;50.786;12.728;2024-01-15T05:59:01;-0.40;1.00
5276;DHT22;2661;50.786;12.728;2024-01-15T06:01:28;-0.40;1.00
5276;DHT22;2661;50.786;12.728;2024-01-15T06:03:54;-0.40;1.00
5276;DHT22;2661;50.786;12.728;2024-01-15T06:06:21;-0.40;1.00
5276;DHT22;2661;50.786;12.728;2024-01-15T06:08:48;-0.40;1.00
5276;DHT22;2661;50.786;12.728;2024-01-15T06:11:14;-0.40;1.00
5276;DHT22;2661;50.786;12.728;2024-01-15T06:13:41;-0.40;1.00
5276;DHT22;2661;50.786;12.728;2024-01-15T06:16:14;-0.40;1.00
5276;DHT22;2661;50.786;12.728;2024-01-15T06:18:42;-0.40;1.00
5276;DHT22;2661;50.786;12.728;2024-01-15T06:21:08;-0.40;1.00
5276;DHT22;2661;50.786;12.728;2024-01-15T06:23:37;-0.30;1.00
5276;DHT22;2661;50.786;12.728;2024-01-15T06:26:04;-0.30;1.00
5276;DHT22;2661;50.786;12.728;2024-01-15T06:28:31;-0.40;1.00
5276;DHT22;2661;50.786;12.728;2024-01-15T06:30:57;-0.40;1.00
5276;DHT22;2661;50.786;12.728;2024-01-15T06:33:24;-0.40;1.00
5276;DHT22;2661;50.786;12.728;2024-01-15T06:35:51;-0.30;1.00
5276;DHT22;2661;50.786;12.728;2024-01-15T06:38:18;-0.40;1.00
5276;DHT22;2661;50.786;12.728;2024-01-15T06:40:44;-0.40;1.00
5276;DHT22;2661;50.786;12.728;2024-01-15T06:43:12;-0.40;1.00
5276;DHT22;2661;50.786;12.728;2024-01-15T06:45:39;-0.40;1.00
5276;DHT22;2661;50.786;12.728;2024-01-15T06:48:06;-0.40;1.00
5276;DHT22;2661;50.786;12.728;2024-01-15T06:50:34;-0.40;1.00
5276;DHT22;2661;50.786;12.728;2024-01-15T06:53:00;-0.40;1.00
5276;DHT22;2661;50.786;12.728;2024-01-15T06:55:27;-0.40;1.00
5276;DHT22;2661;50.786;12.728;2024-01-15T06:57:54;-0.40;1.00
5276;DHT22;2661;50.786;12.728;2024-01-15T07:00:21;-0.30;1.00
5276;DHT22;2661;50.786;12.728;2024-01-15T07:02:48;-0.30;1.00
5276;DHT22;2661;50.786;12.728;2024-01-15T07:05:14;-0.30;1.00
5276;DHT22;2661;50.786;12.728;2024-01-15T07:07:41;-0.30;1.00
5276;DHT22;2661;50.786;12.728;2024-01-15T07:10:08;-0.30;1.00
5276;DHT22;2661;50.786;12.728;2024-01-15T07:12:35;-0.30;1.00
5276;DHT22;2661;50.786;12.728;2024-01-15T07:15:01;-0.30;1.00
5276;DHT22;2661;50.786;12.728;2024-01-15T07:17:28;-0.30;1.00
5276;DHT22;2661;50.786;12.728;2024-01-15T07:19:55;-0.30;1.00
5276;DHT22;2661;50.786;12.728;2024-01-15T07:22:22;-0.30;1.00
5276;DHT22;2661;50.786;12.728;2024-01-15T07:24:48;-0.40;1.00
5276;DHT22;2661;50.786;12.728;2024-01-15T07:27:15;-0.30;1.00
5276;DHT22;2661;50.786;12.728;2024-01-15T07:29:42;-0.30;1.00
5276;DHT22;2661;50.786;12.728;2024-01-15T07:32:09;-0.30;1.00
5276;DHT22;2661;50.786;12.728;2024-01-15T07:34:36;-0.30;1.00
5276;DHT22;2661;50.786;12.728;2024-01-15T07:37:03;-0.20;1.00
5276;DHT22;2661;50.786;12.728;2024-01-15T07:39:30;-0.30;1.00
5276;DHT22;2661;50.786;12.728;2024-01-15T07:41:57;-0.40;1.00
5276;DHT22;2661;50.786;12.728;2024-01-15T07:44:23;-0.40;1.00
5276;DHT22;2661;50.786;12.728;2024-01-15T07:46:50;-0.40;1.00
5276;DHT22;2661;50.786;12.728;2024-01-15T07:49:17;-0.40;1.00
5276;DHT22;2661;50.786;12.728;2024-01-15T07:51:43;-0.40;1.00
5276;DHT22;2661;50.786;12.728;2024-01-15T07:54:10;-0.50;1.00
5276;DHT22;2661;50.786;12.728;2024-01-15T07:56:54;-0.50;1.00
5276;DHT22;2661;50.786;12.728;2024-01-15T07:59:21;-0.50;1.00
5276;DHT22;2661;50.786;12.728;2024-01-15T08:01:48;-0.50;1.00
5276;DHT22;2661;50.786;12.728;2024-01-15T08:04:14;-0.40;1.00
5276;DHT22;2661;50.786;12.728;2024-01-15T08:06:41;-0.40;1.00
5276;DHT22;2661;50.786;12.728;2024-01-15T08:09:08;-0.40;1.00
5276;DHT22;2661;50.786;12.728;2024-01-15T08:11:35;-0.40;1.00
5276;DHT22;2661;50.786;12.728;2024-01-15T08:14:02;-0.40;1.00
5276;DHT22;2661;50.786;12.728;2024-01-15T08:16:28;-0.40;1.00
5276;DHT22;2661;50.786;12.728;2024-01-15T08:18:55;-0.30;1.00
5276;DHT22;2661;50.786;12.728;2024-01-15T08:21:23;-0.30;1.00
5276;DHT22;2661;50.786;12.728;2024-01-15T08:23:49;-0.30;1.00
5276;DHT22;2661;50.786;12.728;2024-01-15T08:26:16;-0.20;1.00
5276;DHT22;2661;50.786;12.728;2024-01-15T08:28:43;-0.20;1.00
5276;DHT22;2661;50.786;12.728;2024-01-15T08:31:09;-0.20;1.00
5276;DHT22;2661;50.786;12.728;2024-01-15T08:33:36;-0.20;1.00
5276;DHT22;2661;50.786;12.728;2024-01-15T08:36:03;-0.10;1.00
5276;DHT22;2661;50.786;12.728;2024-01-15T08:38:29;-0.10;1.00
5276;DHT22;2661;50.786;12.728;2024-01-15T08:40:56;-0.10;1.00
5276;DHT22;2661;50.786;12.728;2024-01-15T08:43:25;0.00;1.00
5276;DHT22;2661;50.786;12.728;2024-01-15T08:45:52;-0.10;1.00
5276;DHT22;2661;50.786;12.728;2024-01-15T08:48:19;-0.10;1.00
5276;DHT22;2661;50.786;12.728;2024-01-15T08:50:45;0.00;1.00
5276;DHT22;2661;50.786;12.728;2024-01-15T08:53:12;0.00;1.00
5276;DHT22;2661;50.786;12.728;2024-01-15T08:55:39;0.00;1.00
5276;DHT22;2661;50.786;12.728;2024-01-15T08:58:06;-0.10;1.00
5276;DHT22;2661;50.786;12.728;2024-01-15T09:00:32;-0.10;1.00
5276;DHT22;2661;50.786;12.728;2024-01-15T09:02:59;0.00;1.00
5276;DHT22;2661;50.786;12.728;2024-01-15T09:05:26;0.00;1.00
5276;DHT22;2661;50.786;12.728;2024-01-15T09:07:53;0.00;1.00
5276;DHT22;2661;50.786;12.728;2024-01-15T09:10:20;0.10;1.00
5276;DHT22;2661;50.786;12.728;2024-01-15T09:12:47;0.10;1.00
5276;DHT22;2661;50.786;12.728;2024-01-15T09:15:16;0.10;1.00
5276;DHT22;2661;50.786;12.728;2024-01-15T09:17:42;0.10;1.00
5276;DHT22;2661;50.786;12.728;2024-01-15T09:20:09;0.10;1.00
5276;DHT22;2661;50.786;12.728;2024-01-15T09:22:39;0.10;1.00
5276;DHT22;2661;50.786;12.728;2024-01-15T09:25:09;0.20;1.00
5276;DHT22;2661;50.786;12.728;2024-01-15T09:27:38;0.20;1.00
5276;DHT22;2661;50.786;12.728;2024-01-15T09:30:05;0.30;1.00
5276;DHT22;2661;50.786;12.728;2024-01-15T09:32:32;0.30;1.00
5276;DHT22;2661;50.786;12.728;2024-01-15T09:34:59;0.40;1.00
5276;DHT22;2661;50.786;12.728;2024-01-15T09:37:26;0.40;1.00
5276;DHT22;2661;50.786;12.728;2024-01-15T09:40:12;0.40;1.00
5276;DHT22;2661;50.786;12.728;2024-01-15T09:42:40;0.40;1.00
5276;DHT22;2661;50.786;12.728;2024-01-15T09:45:07;0.40;1.00
5276;DHT22;2661;50.786;12.728;2024-01-15T09:47:34;0.40;1.00
5276;DHT22;2661;50.786;12.728;2024-01-15T09:50:00;0.40;1.00
5276;DHT22;2661;50.786;12.728;2024-01-15T09:52:30;0.40;1.00
5276;DHT22;2661;50.786;12.728;2024-01-15T09:55:00;0.40;1.00
5276;DHT22;2661;50.786;12.728;2024-01-15T09:57:27;0.40;1.00
5276;DHT22;2661;50.786;12.728;2024-01-15T09:59:54;0.50;1.00
5276;DHT22;2661;50.786;12.728;2024-01-15T10:02:21;0.50;1.00
5276;DHT22;2661;50.786;12.728;2024-01-15T10:04:48;0.50;1.00
5276;DHT22;2661;50.786;12.728;2024-01-15T10:07:15;0.50;1.00
5276;DHT22;2661;50.786;12.728;2024-01-15T10:09:43;0.50;1.00
5276;DHT22;2661;50.786;12.728;2024-01-15T10:12:09;0.50;1.00
5276;DHT22;2661;50.786;12.728;2024-01-15T10:14:36;0.60;1.00
5276;DHT22;2661;50.786;12.728;2024-01-15T10:17:11;0.60;1.00
5276;DHT22;2661;50.786;12.728;2024-01-15T10:19:38;0.60;1.00
5276;DHT22;2661;50.786;12.728;2024-01-15T10:22:04;0.70;1.00
5276;DHT22;2661;50.786;12.728;2024-01-15T10:24:31;0.80;1.00
5276;DHT22;2661;50.786;12.728;2024-01-15T10:27:07;0.90;1.00
5276;DHT22;2661;50.786;12.728;2024-01-15T10:29:34;0.90;1.00
5276;DHT22;2661;50.786;12.728;2024-01-15T10:32:01;0.90;1.00
5276;DHT22;2661;50.786;12.728;2024-01-15T10:34:27;0.90;1.00
5276;DHT22;2661;50.786;12.728;2024-01-15T10:36:54;1.00;1.00
5276;DHT22;2661;50.786;12.728;2024-01-15T10:39:24;1.00;1.00
5276;DHT22;2661;50.786;12.728;2024-01-15T10:41:51;1.10;1.00
5276;DHT22;2661;50.786;12.728;2024-01-15T10:44:17;1.10;1.00
5276;DHT22;2661;50.786;12.728;2024-01-15T10:46:45;1.10;1.00
5276;DHT22;2661;50.786;12.728;2024-01-15T10:49:12;1.10;1.00
5276;DHT22;2661;50.786;12.728;2024-01-15T10:51:38;1.10;1.00
5276;DHT22;2661;50.786;12.728;2024-01-15T10:54:06;1.10;1.00
5276;DHT22;2661;50.786;12.728;2024-01-15T10:56:34;1.00;1.00
5276;DHT22;2661;50.786;12.728;2024-01-15T10:59:01;1.00;1.00
5276;DHT22;2661;50.786;12.728;2024-01-15T11:01:28;1.00;1.00
5276;DHT22;2661;50.786;12.728;2024-01-15T11:03:56;1.00;1.00
5276;DHT22;2661;50.786;12.728;2024-01-15T11:06:24;1.00;1.00
5276;DHT22;2661;50.786;12.728;2024-01-15T11:08:51;1.10;1.00
5276;DHT22;2661;50.786;12.728;2024-01-15T11:11:18;1.10;1.00
5276;DHT22;2661;50.786;12.728;2024-01-15T11:13:46;1.30;1.00
5276;DHT22;2661;50.786;12.728;2024-01-15T11:16:13;1.30;1.00
5276;DHT22;2661;50.786;12.728;2024-01-15T11:18:41;1.20;1.00
5276;DHT22;2661;50.786;12.728;2024-01-15T11:23:48;1.30;1.00
5276;DHT22;2661;50.786;12.728;2024-01-15T11:28:56;1.30;1.00
5276;DHT22;2661;50.786;12.728;2024-01-15T11:31:27;1.40;1.00
5276;DHT22;2661;50.786;12.728;2024-01-15T11:33:53;1.40;1.00
5276;DHT22;2661;50.786;12.728;2024-01-15T11:36:52;1.40;1.00
5276;DHT22;2661;50.786;12.728;2024-01-15T11:42:00;1.40;1.00
5276;DHT22;2661;50.786;12.728;2024-01-15T11:44:27;1.40;1.00
5276;DHT22;2661;50.786;12.728;2024-01-15T11:46:58;1.40;1.00
5276;DHT22;2661;50.786;12.728;2024-01-15T11:49:52;1.50;1.00
5276;DHT22;2661;50.786;12.728;2024-01-15T11:52:20;1.50;1.00
5276;DHT22;2661;50.786;12.728;2024-01-15T11:57:22;1.50;1.00
5276;DHT22;2661;50.786;12.728;2024-01-15T11:59:52;1.50;1.00
5276;DHT22;2661;50.786;12.728;2024-01-15T12:02:19;1.40;1.00
5276;DHT22;2661;50.786;12.728;2024-01-15T12:04:45;1.40;1.00
5276;DHT22;2661;50.786;12.728;2024-01-15T12:07:12;1.30;1.00
5276;DHT22;2661;50.786;12.728;2024-01-15T12:09:45;1.30;1.00
5276;DHT22;2661;50.786;12.728;2024-01-15T12:12:13;1.30;1.00
5276;DHT22;2661;50.786;12.728;2024-01-15T12:14:43;1.30;1.00
5276;DHT22;2661;50.786;12.728;2024-01-15T12:17:10;1.30;1.00
5276;DHT22;2661;50.786;12.728;2024-01-15T12:19:37;1.30;1.00
5276;DHT22;2661;50.786;12.728;2024-01-15T12:22:04;1.30;1.00
5276;DHT22;2661;50.786;12.728;2024-01-15T12:24:30;1.30;1.00
5276;DHT22;2661;50.786;12.728;2024-01-15T12:26:57;1.30;1.00
5276;DHT22;2661;50.786;12.728;2024-01-15T12:29:25;1.20;1.00
5276;DHT22;2661;50.786;12.728;2024-01-15T12:31:52;1.20;1.00
5276;DHT22;2661;50.786;12.728;2024-01-15T12:34:19;1.20;1.00
5276;DHT22;2661;50.786;12.728;2024-01-15T12:36:46;1.20;1.00
5276;DHT22;2661;50.786;12.728;2024-01-15T12:39:13;1.10;1.00
5276;DHT22;2661;50.786;12.728;2024-01-15T12:41:40;1.10;1.00
5276;DHT22;2661;50.786;12.728;2024-01-15T12:44:07;1.20;1.00
5276;DHT22;2661;50.786;12.728;2024-01-15T12:46:33;1.20;1.00
5276;DHT22;2661;50.786;12.728;2024-01-15T12:49:00;1.10;1.00
5276;DHT22;2661;50.786;12.728;2024-01-15T12:51:26;1.20;1.00
5276;DHT22;2661;50.786;12.728;2024-01-15T12:53:54;1.20;1.00
5276;DHT22;2661;50.786;12.728;2024-01-15T12:56:20;1.30;1.00
5276;DHT22;2661;50.786;12.728;2024-01-15T12:58:47;1.30;1.00
5276;DHT22;2661;50.786;12.728;2024-01-15T13:01:13;1.30;1.00
5276;DHT22;2661;50.786;12.728;2024-01-15T13:03:40;1.40;1.00
5276;DHT22;2661;50.786;12.728;2024-01-15T13:06:07;1.40;1.00
5276;DHT22;2661;50.786;12.728;2024-01-15T13:08:33;1.30;1.00
5276;DHT22;2661;50.786;12.728;2024-01-15T13:11:00;1.30;1.00
5276;DHT22;2661;50.786;12.728;2024-01-15T13:13:27;1.20;1.00
5276;DHT22;2661;50.786;12.728;2024-01-15T13:15:53;1.20;1.00
5276;DHT22;2661;50.786;12.728;2024-01-15T13:18:20;1.10;1.00
5276;DHT22;2661;50.786;12.728;2024-01-15T13:20:48;1.10;1.00
5276;DHT22;2661;50.786;12.728;2024-01-15T13:23:15;1.10;1.00
5276;DHT22;2661;50.786;12.728;2024-01-15T13:25:42;1.10;1.00
5276;DHT22;2661;50.786;12.728;2024-01-15T13:28:08;1.00;1.00
5276;DHT22;2661;50.786;12.728;2024-01-15T13:30:35;1.00;1.00
5276;DHT22;2661;50.786;12.728;2024-01-15T13:33:02;1.00;1.00
5276;DHT22;2661;50.786;12.728;2024-01-15T13:35:31;1.10;1.00
5276;DHT22;2661;50.786;12.728;2024-01-15T13:37:58;1.10;1.00
5276;DHT22;2661;50.786;12.728;2024-01-15T13:40:24;1.10;1.00
5276;DHT22;2661;50.786;12.728;2024-01-15T13:42:51;1.10;1.00
5276;DHT22;2661;50.786;12.728;2024-01-15T13:45:19;1.10;1.00
5276;DHT22;2661;50.786;12.728;2024-01-15T13:47:46;1.10;1.00
5276;DHT22;2661;50.786;12.728;2024-01-15T13:50:13;1.10;1.00
5276;DHT22;2661;50.786;12.728;2024-01-15T13:52:40;1.10;1.00
5276;DHT22;2661;50.786;12.728;2024-01-15T13:55:07;1.10;1.00
5276;DHT22;2661;50.786;12.728;2024-01-15T13:57:35;1.10;1.00
5276;DHT22;2661;50.786;12.728;2024-01-15T14:00:02;1.10;1.00
5276;DHT22;2661;50.786;12.728;2024-01-15T14:02:29;1.10;1.00
5276;DHT22;2661;50.786;12.728;2024-01-15T14:04:56;1.10;1.00
5276;DHT22;2661;50.786;12.728;2024-01-15T14:07:22;1.10;1.00
5276;DHT22;2661;50.786;12.728;2024-01-15T14:09:49;1.10;1.00
5276;DHT22;2661;50.786;12.728;2024-01-15T14:12:16;1.10;1.00
5276;DHT22;2661;50.786;12.728;2024-01-15T14:14:42;1.10;1.00
5276;DHT22;2661;50.786;12.728;2024-01-15T14:17:09;1.00;1.00
5276;DHT22;2661;50.786;12.728;2024-01-15T14:19:35;1.00;1.00
5276;DHT22;2661;50.786;12.728;2024-01-15T14:22:03;1.00;1.00
5276;DHT22;2661;50.786;12.728;2024-01-15T14:24:29;0.90;1.00
5276;DHT22;2661;50.786;12.728;2024-01-15T14:26:56;0.90;18.10
5276;DHT22;2661;50.786;12.728;2024-01-15T14:29:23;0.90;24.20
5276;DHT22;2661;50.786;12.728;2024-01-15T14:31:52;0.80;1.00
5276;DHT22;2661;50.786;12.728;2024-01-15T14:34:19;0.80;1.00
5276;DHT22;2661;50.786;12.728;2024-01-15T14:36:48;0.70;1.00
5276;DHT22;2661;50.786;12.728;2024-01-15T14:39:16;0.70;1.00
5276;DHT22;2661;50.786;12.728;2024-01-15T14:41:42;0.70;1.00
5276;DHT22;2661;50.786;12.728;2024-01-15T14:44:09;0.70;1.00
5276;DHT22;2661;50.786;12.728;2024-01-15T14:46:36;0.70;1.00
5276;DHT22;2661;50.786;12.728;2024-01-15T14:49:02;0.70;1.00
5276;DHT22;2661;50.786;12.728;2024-01-15T14:51:29;0.70;1.00
5276;DHT22;2661;50.786;12.728;2024-01-15T14:53:56;0.80;1.00
5276;DHT22;2661;50.786;12.728;2024-01-15T14:56:22;0.70;1.00
5276;DHT22;2661;50.786;12.728;2024-01-15T14:58:49;0.70;1.00
5276;DHT22;2661;50.786;12.728;2024-01-15T15:01:16;0.70;1.00
5276;DHT22;2661;50.786;12.728;2024-01-15T15:03:42;0.70;1.00
5276;DHT22;2661;50.786;12.728;2024-01-15T15:06:11;0.70;1.00
5276;DHT22;2661;50.786;12.728;2024-01-15T15:08:39;0.70;1.00
5276;DHT22;2661;50.786;12.728;2024-01-15T15:11:06;0.60;1.00
5276;DHT22;2661;50.786;12.728;2024-01-15T15:13:32;0.60;1.00
5276;DHT22;2661;50.786;12.728;2024-01-15T15:16:11;0.70;1.00
5276;DHT22;2661;50.786;12.728;2024-01-15T15:18:38;0.70;1.00
5276;DHT22;2661;50.786;12.728;2024-01-15T15:21:05;0.70;1.00
5276;DHT22;2661;50.786;12.728;2024-01-15T15:23:34;0.70;1.00
5276;DHT22;2661;50.786;12.728;2024-01-15T15:26:01;0.60;1.00
5276;DHT22;2661;50.786;12.728;2024-01-15T15:28:27;0.70;1.00
5276;DHT22;2661;50.786;12.728;2024-01-15T15:30:54;0.70;1.00
5276;DHT22;2661;50.786;12.728;2024-01-15T15:33:21;0.60;1.00
5276;DHT22;2661;50.786;12.728;2024-01-15T15:35:48;0.60;1.00
5276;DHT22;2661;50.786;12.728;2024-01-15T15:38:17;0.60;1.00
5276;DHT22;2661;50.786;12.728;2024-01-15T15:40:44;0.60;1.00
5276;DHT22;2661;50.786;12.728;2024-01-15T15:43:10;0.60;1.00
5276;DHT22;2661;50.786;12.728;2024-01-15T15:45:39;0.60;1.00
5276;DHT22;2661;50.786;12.728;2024-01-15T15:48:05;0.60;1.00
5276;DHT22;2661;50.786;12.728;2024-01-15T15:50:33;0.60;1.00
5276;DHT22;2661;50.786;12.728;2024-01-15T15:53:01;0.60;1.00
5276;DHT22;2661;50.786;12.728;2024-01-15T15:55:29;0.50;1.00
5276;DHT22;2661;50.786;12.728;2024-01-15T15:57:56;0.50;1.00
5276;DHT22;2661;50.786;12.728;2024-01-15T16:00:23;0.50;1.00
5276;DHT22;2661;50.786;12.728;2024-01-15T16:02:50;0.50;1.00
5276;DHT22;2661;50.786;12.728;2024-01-15T16:05:16;0.50;1.00
5276;DHT22;2661;50.786;12.728;2024-01-15T16:07:43;0.60;1.00
5276;DHT22;2661;50.786;12.728;2024-01-15T16:10:10;0.60;1.00
5276;DHT22;2661;50.786;12.728;2024-01-15T16:12:36;0.50;1.00
5276;DHT22;2661;50.786;12.728;2024-01-15T16:15:16;0.50;1.00
5276;DHT22;2661;50.786;12.728;2024-01-15T16:17:43;0.50;1.00
5276;DHT22;2661;50.786;12.728;2024-01-15T16:20:30;0.50;1.00
5276;DHT22;2661;50.786;12.728;2024-01-15T16:23:16;0.50;1.00